createdAt,value
2017-03-05T20:51:08.622Z,987.51
2017-03-05T20:52:23.526Z,987.5
2017-03-05T20:53:38.205Z,987.48
2017-03-05T20:54:53.413Z,987.48
2017-03-05T20:56:09.148Z,987.5
2017-03-05T20:57:23.562Z,987.54
2017-03-05T20:58:38.456Z,987.57
2017-03-05T20:59:54.269Z,987.52
2017-03-05T21:01:09.323Z,987.52
2017-03-05T21:02:26.777Z,987.59
2017-03-05T21:03:41.501Z,987.54
2017-03-05T21:04:56.661Z,987.53
2017-03-05T21:06:11.515Z,987.57
2017-03-05T21:07:26.037Z,987.59
2017-03-05T21:08:41.217Z,987.6
2017-03-05T21:09:55.660Z,987.58
2017-03-05T21:11:11.551Z,987.6
2017-03-05T21:12:26.577Z,987.68
2017-03-05T21:13:41.919Z,987.57
2017-03-05T21:14:56.572Z,987.63
2017-03-05T21:16:12.287Z,987.66
2017-03-05T21:17:28.322Z,987.7
2017-03-05T21:18:42.441Z,987.73
2017-03-05T21:19:56.757Z,987.7
2017-03-05T21:21:12.587Z,987.73
2017-03-05T21:22:26.587Z,987.75
2017-03-05T21:23:43.153Z,987.72
2017-03-05T21:24:59.247Z,987.77
2017-03-05T21:26:13.847Z,987.73
2017-03-05T21:27:29.069Z,987.79
2017-03-05T21:28:44.525Z,987.81
2017-03-05T21:29:59.008Z,987.78
2017-03-05T21:31:14.088Z,987.87
2017-03-05T21:32:28.273Z,987.93
2017-03-05T21:33:43.411Z,987.93
2017-03-05T21:34:58.119Z,987.82
2017-03-05T21:36:13.874Z,987.91
2017-03-05T21:37:29.160Z,987.96
2017-03-05T21:38:43.701Z,988
2017-03-05T21:39:59.380Z,988
2017-03-05T21:41:14.941Z,988.04
2017-03-05T21:42:29.780Z,987.99
2017-03-05T21:43:44.800Z,988.03
2017-03-05T21:44:59.510Z,988.03
2017-03-05T21:46:13.870Z,988.06
2017-03-05T21:47:27.987Z,988.08
2017-03-05T21:48:43.314Z,988.08
2017-03-05T21:49:59.068Z,988.15
2017-03-05T21:51:14.973Z,988.26
2017-03-05T21:52:33.340Z,988.2
2017-03-05T21:53:48.102Z,988.21
2017-03-05T21:55:03.764Z,988.27
2017-03-05T21:56:18.779Z,988.28
2017-03-05T21:57:34.229Z,988.3
2017-03-05T21:58:50.486Z,988.3
2017-03-05T22:00:05.885Z,988.38
2017-03-05T22:01:20.464Z,988.41
2017-03-05T22:02:36.874Z,988.4
2017-03-05T22:03:53.355Z,988.4
2017-03-05T22:05:08.683Z,988.45
2017-03-05T22:06:25.798Z,988.49
2017-03-05T22:07:41.588Z,988.54
2017-03-05T22:08:59.164Z,988.5
2017-03-05T22:10:15.522Z,988.49
2017-03-05T22:11:31.068Z,988.52
2017-03-05T22:12:48.586Z,988.6
2017-03-05T22:14:04.169Z,988.57
2017-03-05T22:15:20.077Z,988.57
2017-03-05T22:16:36.818Z,988.57
2017-03-05T22:18:16.488Z,988.61
2017-03-05T22:19:31.501Z,988.59
2017-03-05T22:20:48.116Z,988.62
2017-03-05T22:22:04.210Z,988.64
2017-03-05T22:23:20.676Z,988.65
2017-03-05T22:24:36.172Z,988.7
2017-03-05T22:25:51.818Z,988.73
2017-03-05T22:27:08.029Z,988.78
2017-03-05T22:28:23.508Z,988.78
2017-03-05T22:29:38.058Z,988.81
2017-03-05T22:30:52.161Z,988.78
2017-03-05T22:32:08.387Z,988.83
2017-03-05T22:33:24.222Z,988.81
2017-03-05T22:34:40.245Z,988.85
2017-03-05T22:35:55.053Z,988.89
2017-03-05T22:37:10.212Z,988.85
2017-03-05T22:38:26.981Z,988.88
2017-03-05T22:39:41.556Z,988.97
2017-03-05T22:40:56.537Z,988.95
2017-03-05T22:42:12.821Z,988.97
2017-03-05T22:43:28.059Z,988.99
2017-03-05T22:44:43.599Z,989.05
2017-03-05T22:46:01.755Z,989.03
2017-03-05T22:47:18.051Z,989.05
2017-03-05T22:48:34.077Z,989.09
2017-03-05T22:49:50.549Z,989.12
2017-03-05T22:51:05.224Z,989.16
2017-03-05T22:52:21.150Z,989.14
2017-03-05T22:53:36.081Z,989.14
2017-03-05T22:54:50.461Z,989.11
2017-03-05T22:56:06.583Z,989.22
2017-03-05T22:57:23.512Z,989.22
2017-03-05T22:58:38.346Z,989.29
2017-03-05T22:59:55.328Z,989.31
2017-03-05T23:01:09.555Z,989.28
2017-03-05T23:02:24.948Z,989.34
2017-03-05T23:03:38.904Z,989.3
2017-03-05T23:04:53.349Z,989.33
2017-03-05T23:06:09.436Z,989.26
2017-03-05T23:07:23.976Z,989.32
2017-03-05T23:10:26.160Z,989.36
2017-03-05T23:11:40.436Z,989.4
2017-03-05T23:12:55.678Z,989.38
2017-03-05T23:14:10.676Z,989.42
2017-03-05T23:15:25.664Z,989.42
2017-03-05T23:16:39.771Z,989.44
2017-03-05T23:17:55.592Z,989.4
2017-03-05T23:19:35.282Z,989.46
2017-03-05T23:20:50.195Z,989.5
2017-03-05T23:22:06.435Z,989.56
2017-03-05T23:23:20.582Z,989.57
2017-03-05T23:24:35.263Z,989.61
2017-03-05T23:25:51.673Z,989.59
2017-03-05T23:27:05.672Z,989.63
2017-03-05T23:28:22.421Z,989.61
2017-03-05T23:29:37.348Z,989.65
2017-03-05T23:30:53.325Z,989.71
2017-03-05T23:32:09.392Z,989.73
2017-03-05T23:33:23.567Z,989.79
2017-03-05T23:34:38.635Z,989.76
2017-03-05T23:35:53.110Z,989.84
2017-03-05T23:37:07.436Z,989.85
2017-03-05T23:38:21.379Z,989.86
2017-03-05T23:39:36.034Z,989.83
2017-03-05T23:40:50.528Z,989.89
2017-03-05T23:42:04.889Z,989.9
2017-03-05T23:43:19.989Z,989.93
2017-03-05T23:44:34.601Z,989.97
2017-03-05T23:45:48.658Z,989.97
2017-03-05T23:47:04.238Z,989.98
2017-03-05T23:48:19.008Z,989.99
2017-03-05T23:49:35.170Z,990.01
2017-03-05T23:50:51.211Z,990.02
2017-03-05T23:52:05.891Z,990.04
2017-03-05T23:53:20.688Z,990.01
2017-03-05T23:54:35.347Z,990.01
2017-03-05T23:55:52.670Z,990.03
2017-03-05T23:57:07.204Z,990.08
2017-03-05T23:58:22.137Z,990.09
2017-03-05T23:59:37.545Z,990.1
